Latest Weather Observations for Central Arnhem Plateau

IDD60801

Issued at 6:35 pm CST Saturday 22 November 2014 (issued every 30 minutes, with the page automatically refreshed every 10 minutes)

About weather observations | Map of weather stations | Latest weather observations for NT | Other Formats
Station Details ID: 014909 Name: CENTRAL ARNHEM PLATEAU Lat: -13.33 Lon: 133.09 Height: 416.0 m
Data from the previous 72 hours. | See also: Recent months for locations in Northern Territory
Date/Time
CST
Temp
°C
App
Temp
°C
Dew
Point
Rel
Hum
%
Delta-T
°C
Wind Press
QNH
hPa
Press
MSL
hPa
Rain
since 9 am
mm
Dir
 
Spd
km/h
Gust
km/h
Spd
kts
Gust
kts
22/06:30pm 34.6 33.2 12.3 26 13.6 NE 11 17 6 9 1010.4 1007.2 0.0
22/06:00pm 35.2 33.8 12.2 25 14.0 ENE 11 17 6 9 1010.0 1006.8 0.0
22/05:30pm 34.8 32.0 11.2 24 14.1 NE 17 24 9 13 1009.9 1006.7 0.0
22/05:00pm 36.4 33.8 11.9 23 14.9 ENE 17 24 9 13 1009.6 1006.4 0.0
22/04:30pm 36.2 34.1 12.4 24 14.6 NNE 15 26 8 14 1009.6 1006.4 0.0
22/04:00pm 35.6 32.8 12.5 24 14.1 NE 19 30 10 16 1009.9 1006.7 0.0
22/03:30pm 35.9 33.5 12.8 25 14.2 NNE 17 26 9 14 1010.3 1007.1 0.0
22/03:00pm 35.3 33.2 13.5 27 13.5 NNE 17 28 9 15 1010.8 1007.6 0.0
22/02:30pm 35.8 34.6 13.9 27 13.7 E 13 24 7 13 1011.1 1008.0 0.0
22/02:00pm 34.1 32.6 14.1 30 12.5 NE 15 22 8 12 1011.6 1008.4 0.0
22/01:30pm 34.4 33.1 14.8 30 12.3 ENE 15 22 8 12 1012.1 1008.9 0.0
22/01:00pm 35.2 33.4 16.0 31 12.3 SE 20 24 11 13 1012.4 1009.2 0.0
22/12:30pm 33.0 32.2 15.0 33 11.3 NE 13 19 7 10 1012.8 1009.6 0.0
22/12:00pm 33.7 32.6 15.2 33 11.7 ESE 15 24 8 13 1013.4 1010.3 0.0
22/11:30am 33.5 32.8 15.5 34 11.4 SE 13 22 7 12 1014.0 1010.8 0.0
22/11:00am 31.6 31.4 17.5 43 9.1 ESE 15 20 8 11 1014.4 1011.2 0.0
22/10:30am 30.5 32.3 18.2 47 8.0 NE 6 13 3 7 1014.7 1011.5 0.0
22/10:00am 29.8 31.7 18.9 52 7.2 NNE 7 13 4 7 1014.9 1011.7 0.0
22/09:30am 29.0 30.0 18.7 53 6.7 N 11 13 6 7 1015.1 1011.9 0.0
22/09:00am 28.7 30.9 19.3 56 6.2 SSW 6 11 3 6 1015.0 1011.8 0.0
22/08:30am 27.6 29.7 18.9 59 5.7 W 6 9 3 5 1015.1 1011.9 0.0
22/08:00am 27.2 29.4 19.3 62 5.2 WSW 6 9 3 5 1014.8 1011.6 0.0
22/07:30am 26.3 28.4 19.4 66 4.5 WNW 7 9 4 5 1014.6 1011.4 0.0
22/07:00am 25.9 28.1 19.5 68 4.2 W 7 9 4 5 1014.4 1011.2 0.0
22/06:30am 25.3 26.9 19.2 69 4.0 WNW 9 13 5 7 1014.0 1010.8 0.0
22/06:00am 25.1 27.0 19.0 69 4.0 NW 7 13 4 7 1013.5 1010.4 0.0
22/05:30am 25.2 26.7 18.9 68 4.1 NW 9 13 5 7 1013.1 1009.9 0.0
22/05:00am 25.5 26.5 18.7 66 4.4 WNW 11 15 6 8 1012.8 1009.6 0.0
22/04:30am 25.6 26.2 18.5 65 4.6 NW 13 15 7 8 1012.5 1009.3 0.0
22/04:00am 25.8 26.4 18.5 64 4.7 NW 13 17 7 9 1012.3 1009.1 0.0
22/03:30am 26.2 26.5 17.8 60 5.4 WNW 13 17 7 9 1011.8 1008.6 0.0
22/03:00am 26.5 27.1 17.8 58 5.6 NW 11 17 6 9 1012.0 1008.8 0.0
22/02:30am 26.7 27.8 18.0 59 5.6 WNW 9 13 5 7 1011.8 1008.6 0.0
22/02:00am 26.6 27.8 18.2 60 5.4 NNW 9 15 5 8 1011.8 1008.6 0.0
22/01:30am 27.1 27.5 18.1 58 5.8 NNW 13 20 7 11 1012.0 1008.8 0.0
22/01:00am 27.5 28.1 18.5 58 5.8 NW 13 19 7 10 1012.2 1009.0 0.0
22/12:30am 27.9 28.1 18.6 57 6.1 WNW 15 20 8 11 1012.3 1009.1 0.0
22/12:00am 28.3 28.6 18.7 56 6.3 NW 15 20 8 11 1012.5 1009.3 0.0
 
Date/Time
CST
Temp
°C
App
Temp
°C
Dew
Point
Rel
Hum
%
Delta-T
°C
Wind Press
QNH
hPa
Press
MSL
hPa
Rain
since 9 am
mm
Dir
 
Spd
km/h
Gust
km/h
Spd
kts
Gust
kts
21/11:30pm 28.5 28.9 18.9 56 6.3 NW 15 20 8 11 1012.6 1009.4 0.0
21/11:00pm 28.9 29.5 18.7 54 6.7 NNW 13 17 7 9 1012.6 1009.4 0.0
21/10:30pm 29.2 29.3 18.3 51 7.1 NW 15 20 8 11 1012.5 1009.3 0.0
21/10:00pm 29.8 29.6 18.6 51 7.3 NW 17 22 9 12 1012.4 1009.2 0.0
21/09:30pm 30.4 31.1 17.1 44 8.5 N 9 13 5 7 1012.1 1008.9 0.0
21/09:00pm 30.9 30.8 16.9 43 9.0 N 13 17 7 9 1011.6 1008.4 0.0
21/08:30pm 31.6 31.0 16.7 40 9.6 N 15 20 8 11 1011.2 1008.1 0.0
21/08:00pm 32.3 31.7 15.7 36 10.5 N 13 24 7 13 1010.7 1007.5 0.0
21/07:30pm 32.9 32.6 14.5 33 11.5 N 9 13 5 7 1010.4 1007.2 0.0
21/07:00pm 33.8 32.8 13.3 29 12.6 NNE 11 13 6 7 1010.2 1007.0 0.0
21/06:30pm 34.5 33.1 13.3 27 13.1 N 13 19 7 10 1009.9 1006.7 0.0
21/06:00pm 35.1 33.9 12.7 26 13.7 N 11 19 6 10 1009.7 1006.5 0.0
21/05:30pm 35.8 33.8 12.7 25 14.2 NNE 15 24 8 13 1009.5 1006.3 0.0
21/05:00pm 36.0 33.7 11.6 23 14.8 N 15 22 8 12 1009.4 1006.2 0.0
21/04:30pm 36.2 33.3 11.1 22 15.1 NNE 17 22 9 12 1009.4 1006.2 0.0
21/04:00pm 36.4 33.8 11.9 23 14.9 NNE 17 30 9 16 1009.5 1006.3 0.0
21/03:30pm 36.6 35.4 12.7 23 14.7 N 11 26 6 14 1009.8 1006.6 0.0
21/03:00pm 36.0 33.7 12.9 25 14.2 NE 17 24 9 13 1010.2 1007.0 0.0
21/02:30pm 36.1 35.7 15.2 28 13.3 NE 11 20 6 11 1010.5 1007.3 0.0
21/02:00pm 34.5 32.1 14.4 30 12.6 NE 20 28 11 15 1010.8 1007.6 0.0
21/01:30pm 34.0 33.7 15.4 32 11.8 WNW 11 19 6 10 1011.4 1008.2 0.0
21/01:00pm 33.7 31.8 15.2 33 11.7 N 19 22 10 12 1011.9 1008.7 0.0
21/12:30pm 33.5 33.6 15.5 34 11.4 NE 9 28 5 15 1012.3 1009.1 0.0
21/12:00pm 33.6 33.9 16.9 37 10.8 N 11 20 6 11 1012.9 1009.7 0.0
21/11:30am 32.5 32.7 16.8 39 10.1 ENE 11 17 6 9 1013.2 1010.1 0.0
21/11:00am 31.1 32.6 18.8 48 8.1 N 9 15 5 8 1013.7 1010.6 0.0
21/10:30am 30.6 32.7 19.0 50 7.7 NNE 6 13 3 7 1014.3 1011.1 0.0
21/10:00am 29.6 32.7 19.6 55 6.6 NE 2 9 1 5 1014.6 1011.4 0.0
21/09:30am 28.8 30.5 19.4 56 6.2 WNW 9 15 5 8 1014.6 1011.4 0.0
21/09:00am 28.4 29.8 19.6 59 5.8 W 11 17 6 9 1014.8 1011.6 -
21/08:30am 27.0 29.0 19.9 65 4.7 WNW 9 15 5 8 1014.7 1011.5 -
21/08:00am 26.3 28.1 20.4 70 3.9 W 11 15 6 8 1014.4 1011.2 -
21/07:30am 25.5 26.7 20.7 75 3.2 W 15 20 8 11 1014.0 1010.8 -
21/07:00am 24.9 26.4 20.6 77 2.9 W 13 17 7 9 1013.6 1010.5 -
21/06:30am 24.8 26.4 20.7 78 2.7 W 13 17 7 9 1013.1 1009.9 -
21/06:00am 24.7 25.9 20.6 78 2.7 W 15 19 8 10 1012.7 1009.5 0.0
21/05:30am 24.7 25.4 20.4 77 2.8 W 17 22 9 12 1012.6 1009.4 0.0
21/05:00am 25.2 26.9 20.2 74 3.3 W 11 13 6 7 1012.6 1009.4 0.0
21/04:30am 25.8 28.8 19.2 67 4.3 W 2 7 1 4 1012.9 1009.7 0.0
21/04:00am 25.2 27.4 18.4 66 4.4 ENE 4 7 2 4 1012.4 1009.2 0.0
21/03:30am 25.6 27.8 18.3 64 4.7 NE 4 7 2 4 1012.3 1009.1 0.0
21/03:00am 26.1 27.8 18.0 61 5.2 N 6 7 3 4 1012.3 1009.1 0.0
21/02:30am 26.6 28.2 17.9 59 5.6 N 6 7 3 4 1012.3 1009.1 0.0
21/02:00am 26.8 28.2 17.8 57 5.8 N 7 9 4 5 1012.1 1008.9 0.0
21/01:30am 27.2 28.6 17.7 56 6.1 NNE 7 9 4 5 1012.2 1009.0 0.0
21/01:00am 27.7 29.0 17.5 53 6.5 N 7 11 4 6 1012.4 1009.2 0.0
21/12:30am 28.0 29.5 17.5 52 6.7 N 6 11 3 6 1012.8 1009.6 0.0
21/12:00am 28.3 29.6 18.4 55 6.4 N 9 13 5 7 1012.9 1009.7 0.0
 
Date/Time
CST
Temp
°C
App
Temp
°C
Dew
Point
Rel
Hum
%
Delta-T
°C
Wind Press
QNH
hPa
Press
MSL
hPa
Rain
since 9 am
mm
Dir
 
Spd
km/h
Gust
km/h
Spd
kts
Gust
kts
20/11:30pm 28.6 30.4 19.5 58 6.0 NNW 9 13 5 7 1012.9 1009.7 0.0
20/11:00pm 29.0 29.9 19.3 55 6.4 NW 13 19 7 10 1012.8 1009.6 0.0
20/10:30pm 29.5 29.9 18.9 53 7.0 NW 15 20 8 11 1012.8 1009.6 0.0
20/10:00pm 30.3 30.9 17.7 46 8.2 NNW 11 20 6 11 1012.5 1009.3 0.0
20/09:30pm 30.6 31.4 15.8 40 9.3 NNW 6 9 3 5 1012.3 1009.1 0.0
20/09:00pm 31.2 31.0 15.6 39 9.8 N 11 15 6 8 1011.9 1008.7 0.0
20/08:30pm 31.3 31.0 12.6 31 11.3 NE 6 7 3 4 1011.6 1008.4 0.0
20/08:00pm 32.1 31.7 12.3 29 11.9 NE 6 9 3 5 1011.1 1008.0 0.0
20/07:30pm 32.7 32.1 11.8 28 12.5 NE 6 7 3 4 1010.8 1007.6 0.0
20/07:00pm 33.6 32.9 12.0 27 13.0 NE 7 11 4 6 1010.3 1007.1 0.0
20/06:30pm 34.4 32.4 11.5 25 13.8 NE 13 17 7 9 1010.0 1006.8 0.0
20/06:00pm 34.9 32.8 11.3 24 14.2 NE 13 19 7 10 1009.7 1006.5 0.0
20/05:30pm 35.5 32.3 11.2 23 14.6 ENE 19 26 10 14 1009.6 1006.4 0.0
20/05:00pm 36.1 34.0 12.3 24 14.5 NE 15 19 8 10 1009.5 1006.3 0.0
20/04:30pm 35.8 32.8 12.1 24 14.4 NNE 19 28 10 15 1009.7 1006.5 0.0
20/04:00pm 36.2 34.3 11.8 23 14.8 NE 13 28 7 15 1009.8 1006.6 0.0
20/03:30pm 36.0 34.1 12.9 25 14.3 NNE 15 26 8 14 1010.1 1006.9 0.0
20/03:00pm 35.7 32.9 12.6 25 14.2 NE 19 26 10 14 1010.5 1007.3 0.0
20/02:30pm 35.5 32.7 12.5 25 14.1 E 19 26 10 14 1010.7 1007.5 0.0
20/02:00pm 34.9 33.8 13.1 27 13.4 ESE 11 15 6 8 1011.1 1008.0 0.0
20/01:30pm 34.6 31.0 12.9 27 13.3 E 24 32 13 17 1011.7 1008.5 0.0
20/01:00pm 33.6 32.1 13.1 29 12.6 NNE 13 22 7 12 1012.3 1009.1 0.0
20/12:30pm 34.7 34.3 14.0 28 12.9 NNW 9 26 5 14 1012.8 1009.6 0.0
20/12:00pm 33.7 32.1 12.7 28 12.8 N 13 20 7 11 1013.3 1010.2 0.0
20/11:30am 33.2 31.2 13.8 31 12.0 NNE 17 24 9 13 1013.9 1010.7 0.0
20/11:00am 31.8 30.2 14.0 34 11.0 NNE 15 26 8 14 1014.2 1011.0 0.0
20/10:30am 32.3 30.0 14.0 33 11.3 ENE 19 26 10 14 1014.5 1011.3 0.0
20/10:00am 32.0 30.6 14.6 34 10.8 NE 15 22 8 12 1014.9 1011.7 0.0
20/09:30am 30.8 31.2 14.8 37 9.9 ENE 6 15 3 8 1015.0 1011.8 0.0
20/09:00am 29.6 30.3 15.7 43 8.7 NNE 6 9 3 5 1015.0 1011.8 0.0
20/08:30am 28.5 30.0 15.8 46 7.9 NW 2 7 1 4 1014.8 1011.6 0.0
20/08:00am 27.5 28.7 16.8 52 6.8 W 6 9 3 5 1014.7 1011.5 0.0
20/07:30am 26.2 27.2 17.8 60 5.4 WNW 9 13 5 7 1014.5 1011.3 0.0
20/07:00am 25.6 27.8 18.3 64 4.7 W 4 11 2 6 1014.1 1010.9 0.0
20/06:30am 23.2 25.5 16.7 67 4.0 CALM 0 0 0 0 1013.4 1010.3 0.0
20/06:00am 23.3 25.5 16.6 66 4.2 CALM 0 0 0 0 1013.2 1010.1 0.0
20/05:30am 22.8 25.0 16.4 67 4.0 CALM 0 0 0 0 1013.1 1009.9 0.0
20/05:00am 23.2 25.3 16.3 65 4.3 CALM 0 0 0 0 1012.9 1009.7 0.0
20/04:30am 24.7 25.7 16.9 62 4.9 W 7 11 4 6 1012.8 1009.6 0.0
20/04:00am 24.9 25.3 16.3 59 5.4 WNW 9 13 5 7 1012.5 1009.3 0.0
20/03:30am 25.1 25.2 16.5 59 5.4 W 11 13 6 7 1012.4 1009.2 0.0
20/03:00am 25.2 25.0 16.6 59 5.4 W 13 17 7 9 1012.5 1009.3 0.0
20/02:30am 25.5 26.0 16.6 58 5.6 W 9 13 5 7 1012.5 1009.3 0.0
20/02:00am 26.1 25.2 13.6 46 7.5 W 11 15 6 8 1012.6 1009.4 0.0
20/01:30am 26.3 25.7 13.4 45 7.7 WNW 9 13 5 7 1012.6 1009.4 0.0
20/01:00am 26.7 25.3 13.4 43 8.0 WNW 13 17 7 9 1013.0 1009.8 0.0
20/12:30am 27.0 25.8 14.1 45 7.8 WNW 13 17 7 9 1013.2 1010.1 0.0
20/12:00am 27.3 26.1 14.0 44 8.1 WNW 13 19 7 10 1013.2 1010.1 0.0
 
Date/Time
CST
Temp
°C
App
Temp
°C
Dew
Point
Rel
Hum
%
Delta-T
°C
Wind Press
QNH
hPa
Press
MSL
hPa
Rain
since 9 am
mm
Dir
 
Spd
km/h
Gust
km/h
Spd
kts
Gust
kts
19/11:30pm 27.8 26.6 14.1 43 8.3 WNW 13 17 7 9 1013.3 1010.2 0.0
19/11:00pm 28.3 27.3 14.5 43 8.5 WNW 13 19 7 10 1013.4 1010.3 0.0
19/10:30pm 28.8 28.6 15.7 45 8.2 WNW 11 15 6 8 1013.4 1010.3 0.0
19/10:00pm 29.4 28.0 14.4 40 9.2 NW 15 20 8 11 1013.1 1009.9 0.0
19/09:30pm 30.0 28.3 13.7 37 9.9 NW 15 22 8 12 1012.5 1009.3 0.0
19/09:00pm 30.4 29.5 13.7 36 10.2 WNW 11 17 6 9 1012.2 1009.0 0.0
19/08:30pm 30.7 29.5 13.9 36 10.3 NW 13 19 7 10 1012.2 1009.0 0.0
19/08:00pm 31.2 31.3 13.9 35 10.6 NNW 6 13 3 7 1011.9 1008.7 0.0
19/07:30pm 32.3 33.2 13.0 31 11.8 CALM 0 6 0 3 1011.6 1008.4 0.0
19/07:00pm 33.1 32.6 12.7 29 12.4 NNE 7 9 4 5 1011.1 1008.0 0.0

Other Formats:

Comma delimited format used in spreadsheet applications
http://www.bom.gov.au/fwo/IDD60801/IDD60801.94141.axf

JavaScript Object Notation format (JSON) in row-major order
http://www.bom.gov.au/fwo/IDD60801/IDD60801.94141.json